Time;durP1;ratioP1;P1;durP2;ratioP2;P2;SDS_P1;SDS_P2;PMS_P1;PMS_P2;Temp;Humidity;BMP_temperature;BMP_pressure;BME280_temperature;BME280_humidity;BME280_pressure;Samples;Min_cycle;Max_cycle;Signal;HPM_P1;HPM_P2
2023/05/04 00:00:16;;;;;;;0.55;0.52;;;23.30;47.10;;;;;;6353162;28;20494;-56
2023/05/04 00:03:17;;;;;;;0.55;0.55;;;23.40;46.90;;;;;;6371908;28;20071;-55
2023/05/04 00:06:20;;;;;;;0.65;0.65;;;23.30;47.00;;;;;;6371690;27;20032;-56
2023/05/04 00:09:23;;;;;;;0.63;0.50;;;23.20;46.70;;;;;;6371427;28;20047;-55
2023/05/04 00:12:25;;;;;;;1.00;0.80;;;23.50;47.10;;;;;;6371735;27;20513;-56
2023/05/04 00:15:27;;;;;;;0.98;0.88;;;23.30;46.90;;;;;;6371579;27;20048;-56
2023/05/04 00:18:28;;;;;;;0.60;0.55;;;23.50;46.80;;;;;;6371238;28;20046;-57
2023/05/04 00:21:30;;;;;;;0.98;0.85;;;23.40;46.60;;;;;;6371929;28;20112;-56
2023/05/04 00:24:32;;;;;;;0.80;0.60;;;23.30;46.60;;;;;;6371304;27;20483;-56
2023/05/04 00:27:36;;;;;;;;;;;23.40;46.60;;;;;;6372497;28;20043;-56
2023/05/04 00:30:37;;;;;;;1.17;0.93;;;23.00;46.60;;;;;;6371715;27;19926;-56
2023/05/04 00:33:41;;;;;;;;;;;23.50;46.70;;;;;;6371792;27;20406;-56
2023/05/04 00:36:43;;;;;;;0.60;0.60;;;23.10;46.70;;;;;;6371464;27;20358;-56
2023/05/04 00:39:45;;;;;;;0.73;0.68;;;23.20;46.50;;;;;;6375767;27;20039;-56
2023/05/04 00:42:46;;;;;;;1.02;0.93;;;23.50;46.70;;;;;;6375619;27;20043;-56
2023/05/04 00:45:47;;;;;;;;;;;23.20;46.50;;;;;;6375970;27;20043;-57
2023/05/04 00:48:51;;;;;;;0.90;0.80;;;23.30;46.70;;;;;;6376204;27;19926;-57
2023/05/04 00:51:56;;;;;;;1.10;1.00;;;23.30;46.30;;;;;;6375539;27;20044;-56
2023/05/04 00:55:00;;;;;;;0.70;0.70;;;23.40;46.20;;;;;;6375457;28;20039;-56
2023/05/04 00:58:02;;;;;;;1.00;0.90;;;23.10;46.00;;;;;;6357393;28;20043;-56
2023/05/04 01:01:04;;;;;;;0.90;0.80;;;23.30;46.10;;;;;;6375334;27;20043;-56
2023/05/04 01:04:06;;;;;;;0.80;0.80;;;23.10;46.00;;;;;;6375325;28;20062;-54
2023/05/04 01:07:15;;;;;;;1.10;0.90;;;23.20;46.00;;;;;;6375530;27;20450;-55
2023/05/04 01:10:22;;;;;;;0.70;0.70;;;23.40;46.00;;;;;;6375344;27;20112;-55
2023/05/04 01:13:27;;;;;;;0.88;0.88;;;23.40;45.90;;;;;;6374936;27;20043;-55
2023/05/04 01:16:28;;;;;;;0.90;0.88;;;23.00;45.70;;;;;;6375117;27;20036;-56
2023/05/04 01:19:34;;;;;;;0.90;0.80;;;23.30;46.00;;;;;;6375613;27;20046;-56
2023/05/04 01:22:38;;;;;;;0.95;0.93;;;23.10;45.70;;;;;;6374935;27;20107;-55
2023/05/04 01:25:45;;;;;;;0.82;0.77;;;23.50;45.90;;;;;;6374842;28;20050;-56
2023/05/04 01:28:49;;;;;;;0.70;0.65;;;23.30;45.80;;;;;;6356748;28;20039;-56
2023/05/04 01:31:52;;;;;;;1.33;0.70;;;23.40;45.90;;;;;;6374784;28;20051;-56
2023/05/04 01:34:55;;;;;;;0.50;0.47;;;23.00;45.60;;;;;;6374819;28;20044;-56
2023/05/04 01:37:58;;;;;;;1.08;0.80;;;23.00;45.60;;;;;;6356691;28;20433;-56
2023/05/04 01:40:59;;;;;;;0.90;0.70;;;23.30;45.70;;;;;;6374904;27;20031;-56
2023/05/04 01:44:01;;;;;;;0.70;0.70;;;23.00;45.70;;;;;;6374701;28;20043;-56
2023/05/04 01:47:03;;;;;;;1.08;0.98;;;23.30;45.90;;;;;;6374991;27;20035;-56
2023/05/04 01:50:06;;;;;;;1.20;1.00;;;23.20;45.70;;;;;;6374986;27;20051;-56
2023/05/04 01:53:10;;;;;;;1.10;1.00;;;23.00;45.50;;;;;;6374526;28;20039;-55
2023/05/04 01:56:12;;;;;;;1.45;1.35;;;23.10;45.50;;;;;;6374784;27;20050;-55
2023/05/04 01:59:13;;;;;;;1.30;1.20;;;23.20;45.50;;;;;;6356362;27;20035;-56
2023/05/04 02:02:14;;;;;;;1.15;1.05;;;23.00;45.50;;;;;;6374276;27;20450;-55
2023/05/04 02:05:16;;;;;;;;;;;23.00;45.40;;;;;;6375183;27;20039;-56
2023/05/04 02:08:18;;;;;;;1.38;1.20;;;23.00;45.60;;;;;;6374344;27;19926;-55
2023/05/04 02:11:20;;;;;;;1.30;1.20;;;23.10;45.30;;;;;;6374176;27;20070;-55
2023/05/04 02:14:22;;;;;;;1.60;1.50;;;22.90;45.40;;;;;;6374364;27;20039;-55
2023/05/04 02:17:23;;;;;;;;;;;23.10;45.40;;;;;;6374476;28;20205;-55
2023/05/04 02:20:24;;;;;;;1.00;0.90;;;23.10;45.70;;;;;;6374031;27;20275;-56
2023/05/04 02:23:26;;;;;;;1.17;1.08;;;23.10;45.40;;;;;;6374173;27;20074;-54
2023/05/04 02:26:28;;;;;;;1.35;0.95;;;22.70;45.20;;;;;;6373914;28;20039;-55
2023/05/04 02:29:29;;;;;;;;;;;23.20;45.40;;;;;;6374236;28;20054;-54
2023/05/04 02:32:31;;;;;;;0.80;0.70;;;22.90;45.50;;;;;;6374202;27;19942;-56
2023/05/04 02:35:33;;;;;;;0.80;0.70;;;23.10;45.40;;;;;;6373744;27;20490;-55
2023/05/04 02:38:35;;;;;;;0.80;0.80;;;23.20;45.40;;;;;;6373469;28;20050;-56
2023/05/04 02:41:38;;;;;;;0.82;0.70;;;22.90;45.10;;;;;;6373816;27;20043;-54
2023/05/04 02:44:40;;;;;;;1.10;1.00;;;23.30;45.40;;;;;;6373564;27;20054;-56
2023/05/04 02:47:43;;;;;;;0.68;0.60;;;22.80;45.00;;;;;;6373494;28;20046;-56
2023/05/04 02:50:45;;;;;;;0.75;0.60;;;22.80;45.10;;;;;;6373551;27;20403;-56
2023/05/04 02:53:47;;;;;;;0.98;0.80;;;22.90;45.10;;;;;;6373666;27;20108;-56
2023/05/04 02:56:48;;;;;;;0.60;0.60;;;23.10;45.10;;;;;;6373307;27;20036;-55
2023/05/04 02:59:50;;;;;;;;;;;23.20;45.20;;;;;;6373380;27;20050;-55
2023/05/04 03:02:52;;;;;;;0.73;0.70;;;23.10;45.30;;;;;;6372921;27;19920;-56
2023/05/04 03:05:53;;;;;;;0.70;0.70;;;23.00;45.20;;;;;;6373141;27;20051;-56
2023/05/04 03:08:55;;;;;;;;;;;23.20;45.30;;;;;;6373810;27;20039;-56
2023/05/04 03:11:57;;;;;;;1.20;0.90;;;22.80;45.30;;;;;;6373197;27;19919;-56
2023/05/04 03:14:58;;;;;;;0.80;0.80;;;23.00;45.30;;;;;;6373013;28;20040;-55
2023/05/04 03:18:00;;;;;;;0.80;0.80;;;22.80;45.10;;;;;;6372977;27;20122;-56
2023/05/04 03:21:03;;;;;;;0.90;0.60;;;22.90;45.20;;;;;;6372889;28;20566;-55
2023/05/04 03:24:06;;;;;;;0.80;0.60;;;22.90;45.30;;;;;;6372653;27;20058;-56
2023/05/04 03:27:08;;;;;;;0.52;0.52;;;23.10;45.30;;;;;;6373387;28;20100;-56
2023/05/04 03:30:12;;;;;;;0.80;0.80;;;23.00;45.40;;;;;;6372851;28;20569;-56
2023/05/04 03:33:15;;;;;;;0.68;0.68;;;23.20;45.40;;;;;;6372740;28;20083;-56
2023/05/04 03:36:17;;;;;;;1.20;0.70;;;22.90;45.30;;;;;;6372480;28;20050;-55
2023/05/04 03:39:20;;;;;;;0.80;0.75;;;23.10;45.40;;;;;;6372994;28;20043;-56
2023/05/04 03:42:21;;;;;;;1.08;0.88;;;22.90;45.20;;;;;;6371055;27;20543;-56
2023/05/04 03:45:23;;;;;;;0.95;0.80;;;22.80;45.30;;;;;;6372407;28;20071;-56
2023/05/04 03:48:25;;;;;;;0.57;0.57;;;23.00;45.40;;;;;;6372913;28;20103;-56
2023/05/04 03:51:28;;;;;;;0.50;0.40;;;23.10;45.50;;;;;;6372490;27;20491;-56
2023/05/04 03:54:30;;;;;;;0.60;0.60;;;22.60;45.20;;;;;;6372254;28;20039;-54
2023/05/04 03:57:31;;;;;;;0.80;0.65;;;23.00;45.40;;;;;;6372572;27;20482;-56
2023/05/04 04:00:34;;;;;;;0.50;0.50;;;22.80;45.40;;;;;;6372051;27;20051;-56
2023/05/04 04:03:43;;;;;;;0.50;0.50;;;23.10;45.60;;;;;;6372074;28;20050;-55
2023/05/04 04:06:45;;;;;;;0.50;0.50;;;23.10;45.60;;;;;;6372461;28;20047;-55
2023/05/04 04:09:51;;;;;;;0.60;0.60;;;22.80;45.50;;;;;;6372077;27;20096;-55
2023/05/04 04:12:53;;;;;;;0.60;0.50;;;23.10;45.60;;;;;;6374710;27;20099;-56
2023/05/04 04:15:54;;;;;;;0.55;0.50;;;22.80;45.50;;;;;;6376735;27;20122;-55
2023/05/04 04:18:57;;;;;;;1.15;0.60;;;23.10;45.70;;;;;;6376943;27;20067;-55
2023/05/04 04:21:58;;;;;;;0.50;0.50;;;23.10;45.80;;;;;;6376289;28;20043;-55
2023/05/04 04:25:04;;;;;;;0.50;0.50;;;22.90;45.70;;;;;;6376581;28;20035;-55
2023/05/04 04:28:05;;;;;;;0.50;0.50;;;23.00;45.70;;;;;;6376395;27;20032;-55
2023/05/04 04:31:08;;;;;;;;;;;22.90;45.70;;;;;;6377028;28;20043;-53
2023/05/04 04:34:11;;;;;;;0.70;0.50;;;23.00;46.10;;;;;;6376395;27;19920;-56
2023/05/04 04:37:13;;;;;;;;;;;22.90;45.70;;;;;;6376467;28;20088;-56
2023/05/04 04:40:15;;;;;;;0.70;0.70;;;23.30;46.20;;;;;;6375997;27;19923;-55
2023/05/04 04:43:16;;;;;;;0.40;0.38;;;22.90;45.80;;;;;;6376168;27;20039;-54
2023/05/04 04:46:18;;;;;;;;;;;23.00;46.10;;;;;;6376046;27;20047;-56
2023/05/04 04:49:19;;;;;;;0.82;0.70;;;22.70;46.10;;;;;;6375878;28;19919;-54
2023/05/04 04:52:22;;;;;;;0.70;0.57;;;22.70;46.10;;;;;;6376139;27;20039;-55
2023/05/04 04:55:24;;;;;;;0.50;0.50;;;22.90;46.20;;;;;;6375609;27;20533;-55
2023/05/04 04:58:26;;;;;;;1.33;0.70;;;23.00;46.30;;;;;;6375443;27;20035;-55
2023/05/04 05:01:28;;;;;;;0.57;0.38;;;22.90;46.30;;;;;;6376033;27;20072;-55
2023/05/04 05:04:33;;;;;;;0.52;0.52;;;22.80;46.50;;;;;;6375876;28;20042;-55
2023/05/04 05:07:35;;;;;;;0.60;0.60;;;23.00;46.00;;;;;;6375847;27;20039;-55
2023/05/04 05:10:37;;;;;;;0.70;0.70;;;22.80;46.60;;;;;;6375261;27;20051;-54
2023/05/04 05:13:41;;;;;;;0.50;0.50;;;22.80;46.60;;;;;;6375500;27;20050;-55
2023/05/04 05:16:42;;;;;;;0.63;0.50;;;22.70;46.50;;;;;;6375536;27;20473;-55
2023/05/04 05:19:44;;;;;;;0.75;0.75;;;22.80;46.70;;;;;;6375093;28;20129;-55
2023/05/04 05:22:45;;;;;;;0.73;0.60;;;22.70;46.80;;;;;;6374992;27;20049;-55
2023/05/04 05:25:50;;;;;;;0.60;0.50;;;22.80;46.90;;;;;;6374727;27;20043;-54
2023/05/04 05:28:52;;;;;;;0.90;0.55;;;22.90;46.90;;;;;;6374988;27;20067;-55
2023/05/04 05:31:53;;;;;;;;;;;22.80;47.10;;;;;;6375679;27;20456;-56
2023/05/04 05:34:54;;;;;;;0.50;0.47;;;22.80;47.30;;;;;;6374915;28;20445;-55
2023/05/04 05:37:56;;;;;;;0.40;0.40;;;22.90;47.20;;;;;;6375164;27;20384;-55
2023/05/04 05:41:00;;;;;;;0.50;0.50;;;22.90;47.30;;;;;;6374995;28;20440;-55
2023/05/04 05:44:01;;;;;;;0.68;0.50;;;22.80;47.50;;;;;;6374123;27;20075;-55
2023/05/04 05:47:03;;;;;;;0.60;0.60;;;22.80;47.60;;;;;;6375142;28;20043;-54
2023/05/04 05:50:06;;;;;;;0.57;0.50;;;22.80;47.70;;;;;;6374762;27;20047;-55
2023/05/04 05:53:08;;;;;;;1.15;0.70;;;22.90;47.80;;;;;;6356381;27;20055;-55
2023/05/04 05:56:10;;;;;;;;;;;22.80;48.00;;;;;;6375146;27;20043;-55
2023/05/04 05:59:11;;;;;;;0.68;0.60;;;22.80;48.10;;;;;;6374599;27;19927;-55
2023/05/04 06:02:13;;;;;;;0.68;0.68;;;23.00;48.10;;;;;;6374205;27;20494;-55
2023/05/04 06:05:15;;;;;;;1.25;0.50;;;22.70;48.20;;;;;;6374841;27;20043;-55
2023/05/04 06:08:17;;;;;;;0.60;0.50;;;22.70;48.30;;;;;;6374378;27;20087;-55
2023/05/04 06:11:20;;;;;;;0.95;0.70;;;22.80;48.60;;;;;;6374119;27;20435;-55
2023/05/04 06:14:21;;;;;;;0.60;0.60;;;22.90;48.80;;;;;;6374406;27;20043;-55
2023/05/04 06:17:23;;;;;;;0.77;0.70;;;22.60;48.90;;;;;;6373836;27;20329;-55
2023/05/04 06:20:28;;;;;;;0.70;0.60;;;22.90;49.10;;;;;;6373497;27;20479;-56
2023/05/04 06:23:30;;;;;;;0.77;0.70;;;23.00;50.10;;;;;;6373490;27;20039;-56
2023/05/04 06:26:33;;;;;;;0.73;0.65;;;22.90;49.50;;;;;;6373905;27;20031;-55
2023/05/04 06:29:37;;;;;;;0.80;0.68;;;22.90;49.50;;;;;;6373289;27;20078;-55
2023/05/04 06:32:41;;;;;;;0.50;0.50;;;22.90;49.80;;;;;;6373272;27;20081;-55
2023/05/04 06:35:44;;;;;;;0.40;0.40;;;22.80;49.90;;;;;;6372369;27;20046;-54
2023/05/04 06:38:45;;;;;;;0.93;0.73;;;22.60;50.20;;;;;;6373502;28;20046;-55
2023/05/04 06:41:47;;;;;;;0.80;0.80;;;22.80;50.30;;;;;;6373065;27;20036;-55
2023/05/04 06:44:52;;;;;;;0.63;0.63;;;22.80;50.50;;;;;;6373225;27;20050;-52
2023/05/04 06:47:53;;;;;;;;;;;23.00;50.80;;;;;;6373386;27;20394;-55
2023/05/04 06:50:55;;;;;;;0.65;0.63;;;22.90;50.90;;;;;;6372984;27;19930;-54
2023/05/04 06:53:57;;;;;;;1.20;1.00;;;22.70;50.70;;;;;;6373022;27;20047;-55
2023/05/04 06:57:02;;;;;;;0.70;0.65;;;22.70;51.10;;;;;;6373119;28;20150;-54
2023/05/04 07:00:07;;;;;;;1.13;0.90;;;22.80;51.40;;;;;;6373238;27;20042;-55
2023/05/04 07:03:08;;;;;;;1.95;1.20;;;22.60;51.60;;;;;;6372612;28;20047;-53
2023/05/04 07:06:10;;;;;;;1.30;1.10;;;22.80;52.00;;;;;;6372432;27;20035;-55
2023/05/04 07:09:12;;;;;;;;;;;22.80;52.10;;;;;;6372489;27;20043;-55
2023/05/04 07:12:14;;;;;;;1.15;0.73;;;22.90;51.70;;;;;;6372194;27;19920;-55
2023/05/04 07:15:17;;;;;;;0.93;0.80;;;22.60;52.10;;;;;;6372428;27;20039;-56
2023/05/04 07:18:19;;;;;;;0.70;0.70;;;22.90;52.50;;;;;;6372210;27;20168;-55
2023/05/04 07:21:20;;;;;;;;;;;22.90;52.80;;;;;;6372862;27;20525;-53
2023/05/04 07:24:30;;;;;;;1.35;0.80;;;22.90;52.90;;;;;;6372224;27;19920;-55
2023/05/04 07:27:34;;;;;;;1.77;0.90;;;22.80;52.80;;;;;;6372123;27;20462;-55
2023/05/04 07:30:35;;;;;;;1.13;0.77;;;22.60;53.00;;;;;;6372532;27;20047;-55
2023/05/04 07:33:37;;;;;;;;;;;22.90;53.40;;;;;;6372831;27;20485;-56
2023/05/04 07:36:38;;;;;;;0.77;0.75;;;22.80;53.80;;;;;;6354274;28;19919;-55
2023/05/04 07:39:42;;;;;;;0.90;0.70;;;22.80;53.40;;;;;;6371814;27;20043;-55
2023/05/04 07:42:45;;;;;;;0.70;0.70;;;22.80;53.60;;;;;;6354052;28;20105;-54
2023/05/04 07:45:46;;;;;;;0.90;0.70;;;22.60;53.60;;;;;;6372103;27;20035;-55
2023/05/04 07:48:50;;;;;;;1.58;1.00;;;22.90;53.90;;;;;;6375726;27;20039;-55
2023/05/04 07:51:52;;;;;;;1.10;0.90;;;23.00;54.00;;;;;;6375683;27;20456;-53
2023/05/04 07:54:53;;;;;;;0.80;0.80;;;22.80;54.00;;;;;;6376289;27;20039;-54
2023/05/04 07:57:55;;;;;;;1.00;0.90;;;22.90;54.10;;;;;;6376477;27;20426;-55
2023/05/04 08:00:57;;;;;;;0.88;0.68;;;23.10;54.30;;;;;;6376830;27;20042;-54
2023/05/04 08:03:59;;;;;;;;;;;23.00;54.40;;;;;;6376650;27;20043;-55
2023/05/04 08:07:00;;;;;;;0.60;0.60;;;23.10;53.90;;;;;;6376318;27;20415;-54
2023/05/04 08:10:02;;;;;;;;;;;23.00;54.30;;;;;;6376602;27;20486;-54
2023/05/04 08:13:06;;;;;;;0.77;0.60;;;23.20;54.30;;;;;;6375735;28;20375;-56
2023/05/04 08:16:08;;;;;;;1.00;0.75;;;23.00;54.80;;;;;;6375772;27;20501;-55
2023/05/04 08:19:11;;;;;;;1.05;0.82;;;23.00;55.10;;;;;;6375673;27;20436;-54
2023/05/04 08:22:14;;;;;;;0.50;0.50;;;22.90;55.30;;;;;;6375829;27;20039;-55
2023/05/04 08:25:16;;;;;;;0.73;0.73;;;23.00;55.60;;;;;;6375448;27;20092;-55
2023/05/04 08:28:18;;;;;;;0.98;0.70;;;23.40;55.80;;;;;;6375878;27;20553;-54
2023/05/04 08:31:20;;;;;;;0.65;0.60;;;23.70;56.30;;;;;;6375640;27;20051;-54
2023/05/04 08:34:22;;;;;;;0.73;0.70;;;23.10;56.10;;;;;;6375847;28;20081;-55
2023/05/04 08:37:25;;;;;;;0.73;0.63;;;23.20;55.60;;;;;;6376258;27;20528;-54
2023/05/04 08:40:28;;;;;;;0.70;0.55;;;23.00;56.20;;;;;;6374754;27;20047;-55
2023/05/04 08:43:33;;;;;;;0.80;0.80;;;23.00;56.50;;;;;;6375560;27;20047;-54
2023/05/04 08:46:35;;;;;;;0.77;0.70;;;23.30;56.70;;;;;;6357050;27;20039;-54
2023/05/04 08:49:36;;;;;;;0.80;0.70;;;23.00;56.90;;;;;;6375772;27;20032;-53
2023/05/04 08:52:43;;;;;;;0.90;0.90;;;23.10;57.10;;;;;;6374909;27;20494;-53
2023/05/04 08:55:48;;;;;;;0.65;0.65;;;23.40;57.30;;;;;;6374695;27;20108;-53
2023/05/04 08:58:51;;;;;;;0.90;0.60;;;23.40;57.20;;;;;;6374189;27;20091;-54
2023/05/04 09:01:57;;;;;;;1.25;0.93;;;23.30;59.10;;;;;;6356740;27;20043;-55
2023/05/04 09:05:01;;;;;;;1.00;0.47;;;23.50;59.20;;;;;;6374777;27;20439;-53
2023/05/04 09:08:03;;;;;;;0.80;0.70;;;23.40;61.00;;;;;;6375567;27;20039;-54
2023/05/04 09:11:04;;;;;;;1.13;0.73;;;23.30;61.20;;;;;;6375237;27;20047;-53
2023/05/04 09:14:06;;;;;;;0.50;0.50;;;23.10;65.60;;;;;;6375227;27;20123;-54
2023/05/04 09:17:13;;;;;;;0.88;0.60;;;23.30;60.00;;;;;;6338666;28;20067;-52
2023/05/04 09:20:15;;;;;;;0.85;0.65;;;23.50;60.10;;;;;;6356423;28;20043;-51
2023/05/04 09:23:21;;;;;;;0.50;0.50;;;23.40;60.00;;;;;;6374920;27;20035;-51
2023/05/04 09:26:27;;;;;;;0.77;0.50;;;23.30;60.70;;;;;;6375152;28;20134;-52
2023/05/04 09:29:31;;;;;;;0.60;0.60;;;23.60;60.10;;;;;;6356554;27;20107;-52
2023/05/04 09:32:35;;;;;;;1.30;0.80;;;23.20;59.70;;;;;;6374266;28;20082;-52
2023/05/04 09:35:40;;;;;;;0.52;0.50;;;23.20;59.50;;;;;;6374701;27;20486;-54
2023/05/04 09:38:43;;;;;;;0.60;0.50;;;23.70;59.60;;;;;;6374317;28;20054;-53
2023/05/04 09:41:44;;;;;;;0.73;0.40;;;23.70;59.60;;;;;;6374088;28;20043;-54
2023/05/04 09:44:58;;;;;;;0.30;0.30;;;23.20;59.60;;;;;;6321055;27;20071;-54
2023/05/04 09:48:13;;;;;;;0.40;0.38;;;23.60;59.60;;;;;;6373937;27;20039;-52
2023/05/04 09:51:20;;;;;;;0.63;0.63;;;23.60;60.30;;;;;;6373730;27;20410;-53
2023/05/04 09:54:21;;;;;;;0.50;0.40;;;23.40;59.90;;;;;;6374492;28;20044;-53
2023/05/04 09:57:24;;;;;;;0.50;0.50;;;23.50;59.80;;;;;;6373897;28;20084;-51
2023/05/04 10:00:26;;;;;;;0.30;0.30;;;24.00;59.70;;;;;;6373475;27;20433;-52
2023/05/04 10:03:28;;;;;;;0.30;0.30;;;23.60;59.30;;;;;;6373312;28;20043;-51
2023/05/04 10:06:34;;;;;;;0.70;0.40;;;23.70;59.10;;;;;;6355930;28;20414;-53
2023/05/04 10:09:37;;;;;;;0.30;0.30;;;23.60;59.40;;;;;;6373878;27;20084;-54
2023/05/04 10:12:39;;;;;;;0.20;0.20;;;23.90;58.90;;;;;;6374129;28;20348;-54
2023/05/04 10:15:52;;;;;;;1.77;0.40;;;24.00;58.80;;;;;;6374479;27;20038;-54
2023/05/04 10:19:16;;;;;;;0.40;0.30;;;23.80;58.30;;;;;;6373772;27;20040;-54
2023/05/04 10:22:34;;;;;;;0.65;0.20;;;23.90;58.20;;;;;;6373309;27;20035;-54
2023/05/04 10:25:53;;;;;;;0.30;0.30;;;23.90;58.00;;;;;;6373926;28;20079;-54
2023/05/04 10:29:04;;;;;;;0.30;0.28;;;24.00;58.00;;;;;;6373114;27;20047;-53
2023/05/04 10:32:18;;;;;;;3.30;0.30;;;24.10;57.90;;;;;;6371039;27;20051;-55
2023/05/04 10:35:21;;;;;;;0.85;0.20;;;23.90;55.50;;;;;;6355363;28;20039;-53
2023/05/04 10:38:31;;;;;;;1.20;0.20;;;23.70;57.80;;;;;;6373004;27;20100;-53
2023/05/04 10:41:33;;;;;;;0.10;0.10;;;24.00;57.90;;;;;;6354764;27;20043;-53
2023/05/04 10:44:47;;;;;;;0.25;0.25;;;24.00;57.40;;;;;;6373695;27;20039;-54
2023/05/04 10:47:57;;;;;;;0.40;0.30;;;24.10;57.70;;;;;;6373904;27;20039;-54
2023/05/04 10:50:59;;;;;;;0.20;0.20;;;23.90;57.20;;;;;;6373017;28;20192;-55
2023/05/04 10:54:00;;;;;;;0.28;0.20;;;23.90;57.40;;;;;;6372712;28;20092;-55
2023/05/04 10:57:03;;;;;;;0.17;0.17;;;23.90;57.10;;;;;;6373209;27;20402;-55
2023/05/04 11:00:06;;;;;;;0.20;0.20;;;24.10;56.80;;;;;;6373085;27;20388;-54
2023/05/04 11:03:10;;;;;;;0.25;0.20;;;23.80;56.50;;;;;;6373336;27;20074;-54
2023/05/04 11:06:16;;;;;;;0.10;0.10;;;23.70;56.30;;;;;;6372456;28;20084;-52
2023/05/04 11:09:18;;;;;;;0.10;0.10;;;24.00;56.20;;;;;;6372688;27;20046;-54
2023/05/04 11:12:21;;;;;;;0.20;0.17;;;24.00;56.10;;;;;;6373159;27;20039;-54
2023/05/04 11:15:23;;;;;;;0.10;0.10;;;24.30;53.50;;;;;;6372233;27;20043;-53
2023/05/04 11:18:27;;;;;;;0.17;0.17;;;24.20;55.70;;;;;;6372799;28;20047;-55
2023/05/04 11:21:29;;;;;;;0.28;0.20;;;24.10;55.40;;;;;;6353414;27;20043;-54
2023/05/04 11:24:42;;;;;;;0.20;0.20;;;24.00;55.40;;;;;;6372101;28;20336;-54
2023/05/04 11:27:43;;;;;;;0.40;0.20;;;24.20;55.30;;;;;;6372579;28;20035;-56
2023/05/04 11:30:46;;;;;;;0.20;0.20;;;23.90;55.10;;;;;;6371956;27;20043;-54
2023/05/04 11:33:53;;;;;;;0.13;0.10;;;24.10;54.90;;;;;;6371739;27;20088;-54
2023/05/04 11:36:55;;;;;;;0.10;0.10;;;24.30;54.80;;;;;;6372078;27;20200;-54
2023/05/04 11:39:57;;;;;;;0.28;0.28;;;24.10;54.70;;;;;;6372113;27;20039;-55
2023/05/04 11:43:01;;;;;;;0.10;0.10;;;24.30;54.70;;;;;;6371714;28;20382;-55
2023/05/04 11:46:05;;;;;;;0.10;0.10;;;24.00;54.40;;;;;;6336765;28;20051;-55
2023/05/04 11:49:07;;;;;;;0.25;0.20;;;24.20;54.50;;;;;;6354094;27;20116;-55
2023/05/04 11:52:12;;;;;;;0.20;0.20;;;24.10;53.90;;;;;;6371742;27;20050;-53
2023/05/04 11:55:26;;;;;;;0.20;0.20;;;24.40;54.60;;;;;;6371979;27;20130;-55
2023/05/04 11:58:27;;;;;;;0.20;0.20;;;24.40;54.50;;;;;;6371497;27;20039;-54
2023/05/04 12:01:34;;;;;;;0.20;0.20;;;24.60;53.90;;;;;;6371689;27;20050;-53
2023/05/04 12:04:36;;;;;;;0.52;0.13;;;24.50;53.70;;;;;;6371452;27;20051;-55
2023/05/04 12:07:37;;;;;;;0.40;0.13;;;24.40;53.80;;;;;;6372429;27;20088;-55
2023/05/04 12:10:40;;;;;;;0.40;0.30;;;24.20;53.70;;;;;;6372250;27;20088;-53
2023/05/04 12:13:43;;;;;;;0.45;0.30;;;24.40;53.50;;;;;;6371422;27;20043;-52
2023/05/04 12:16:53;;;;;;;0.47;0.47;;;24.50;53.50;;;;;;6371857;27;20047;-53
2023/05/04 12:19:58;;;;;;;0.30;0.20;;;24.90;53.60;;;;;;6371204;27;20091;-55
2023/05/04 12:23:05;;;;;;;0.28;0.22;;;24.50;53.20;;;;;;6371136;27;20092;-54
2023/05/04 12:26:07;;;;;;;0.20;0.17;;;24.60;53.00;;;;;;6371172;27;20040;-54
2023/05/04 12:29:09;;;;;;;0.30;0.20;;;24.60;52.80;;;;;;6351066;28;20364;-56
2023/05/04 12:32:10;;;;;;;0.20;0.20;;;24.50;52.70;;;;;;6371128;27;20129;-55
2023/05/04 12:35:15;;;;;;;0.20;0.20;;;24.60;52.50;;;;;;6376770;28;20035;-55
2023/05/04 12:38:17;;;;;;;0.20;0.20;;;24.70;52.70;;;;;;6375483;27;20486;-56
2023/05/04 12:41:19;;;;;;;0.30;0.20;;;24.50;52.70;;;;;;6376050;27;20478;-54
2023/05/04 12:44:22;;;;;;;1.10;0.20;;;24.70;52.70;;;;;;6375598;27;20054;-54
2023/05/04 12:47:24;;;;;;;0.20;0.20;;;24.60;52.40;;;;;;6375553;27;20516;-54
2023/05/04 12:50:26;;;;;;;0.30;0.20;;;24.70;52.30;;;;;;6375106;27;20043;-55
2023/05/04 12:53:30;;;;;;;0.22;0.22;;;24.70;52.10;;;;;;6375520;27;20047;-54
2023/05/04 12:56:32;;;;;;;0.30;0.10;;;24.70;52.20;;;;;;6339707;27;20039;-53
2023/05/04 12:59:34;;;;;;;0.30;0.20;;;24.60;52.10;;;;;;6374839;27;20439;-54
2023/05/04 13:02:36;;;;;;;0.50;0.28;;;24.70;52.40;;;;;;6356616;27;20043;-53
2023/05/04 13:05:38;;;;;;;0.32;0.22;;;24.70;52.30;;;;;;6375440;27;20066;-54
2023/05/04 13:08:40;;;;;;;0.50;0.30;;;24.80;52.50;;;;;;6375505;27;20145;-54
2023/05/04 13:11:44;;;;;;;0.88;0.30;;;25.00;52.60;;;;;;6375062;27;20132;-54
2023/05/04 13:14:45;;;;;;;0.38;0.20;;;24.60;51.40;;;;;;6374821;27;20055;-54
2023/05/04 13:17:47;;;;;;;0.85;0.43;;;24.70;51.30;;;;;;6375065;28;20039;-55
2023/05/04 13:20:52;;;;;;;1.40;0.30;;;24.60;51.40;;;;;;6375108;28;20043;-53
2023/05/04 13:23:54;;;;;;;0.55;0.40;;;24.70;51.40;;;;;;6374313;27;20502;-56
2023/05/04 13:26:55;;;;;;;0.65;0.28;;;24.80;52.10;;;;;;6374618;27;20047;-56
2023/05/04 13:29:59;;;;;;;0.20;0.20;;;24.70;51.90;;;;;;6374774;27;20067;-54
2023/05/04 13:33:01;;;;;;;0.32;0.20;;;24.50;65.00;;;;;;6374568;27;20055;-53
2023/05/04 13:36:08;;;;;;;0.10;0.10;;;24.50;65.30;;;;;;6374657;27;20386;-55
2023/05/04 13:39:12;;;;;;;0.20;0.10;;;24.50;65.80;;;;;;6372466;27;20419;-55
2023/05/04 13:42:14;;;;;;;0.10;0.10;;;24.50;65.50;;;;;;6374189;28;20039;-56
2023/05/04 13:45:15;;;;;;;0.28;0.10;;;24.50;68.30;;;;;;6374029;27;20051;-55
2023/05/04 13:48:17;;;;;;;0.30;0.15;;;24.50;68.70;;;;;;6356374;28;20084;-55
2023/05/04 13:51:19;;;;;;;0.25;0.20;;;24.40;69.00;;;;;;6374045;28;20043;-52
2023/05/04 13:54:23;;;;;;;0.17;0.10;;;24.30;69.30;;;;;;6374558;28;20046;-55
2023/05/04 13:57:25;;;;;;;0.17;0.17;;;24.50;70.10;;;;;;6374688;27;20050;-55
2023/05/04 14:00:30;;;;;;;0.43;0.25;;;24.50;66.00;;;;;;6373908;27;20503;-56
2023/05/04 14:03:32;;;;;;;0.30;0.20;;;24.50;52.40;;;;;;6374695;27;20061;-55
2023/05/04 14:06:34;;;;;;;0.32;0.20;;;24.50;52.80;;;;;;6373893;27;20126;-55
2023/05/04 14:09:35;;;;;;;0.35;0.20;;;24.50;53.30;;;;;;6373474;27;20502;-55
2023/05/04 14:12:40;;;;;;;0.30;0.20;;;24.60;53.70;;;;;;6338361;27;20051;-53
2023/05/04 14:15:42;;;;;;;0.28;0.20;;;24.20;52.10;;;;;;6373784;27;20128;-54
2023/05/04 14:18:43;;;;;;;0.30;0.20;;;24.60;54.10;;;;;;6373184;27;20118;-55
2023/05/04 14:21:45;;;;;;;0.20;0.20;;;24.00;54.10;;;;;;6374050;27;20047;-55
2023/05/04 14:24:51;;;;;;;0.80;0.40;;;24.40;54.10;;;;;;6373663;27;20048;-54
2023/05/04 14:27:52;;;;;;;0.20;0.20;;;24.40;54.40;;;;;;6373358;28;20498;-54
2023/05/04 14:30:54;;;;;;;0.10;0.10;;;24.30;54.30;;;;;;6374013;27;20092;-54
2023/05/04 14:33:55;;;;;;;0.65;0.22;;;24.30;54.20;;;;;;6373494;28;20043;-54
2023/05/04 14:37:01;;;;;;;0.68;0.38;;;24.50;54.00;;;;;;6373510;27;20039;-54
2023/05/04 14:40:09;;;;;;;0.30;0.20;;;24.60;52.40;;;;;;6373771;27;20088;-55
2023/05/04 14:43:12;;;;;;;0.30;0.30;;;24.20;53.60;;;;;;6373815;28;20036;-54
2023/05/04 14:46:13;;;;;;;0.22;0.22;;;24.30;53.60;;;;;;6373363;28;20039;-53
2023/05/04 14:49:15;;;;;;;0.45;0.32;;;24.40;53.40;;;;;;6373284;28;20043;-56
2023/05/04 14:52:37;;;;;;;0.30;0.20;;;24.50;53.30;;;;;;6373490;27;20455;-55
2023/05/04 14:55:40;;;;;;;0.50;0.30;;;24.50;53.00;;;;;;6372457;27;20043;-52
2023/05/04 14:58:42;;;;;;;0.30;0.30;;;24.40;52.70;;;;;;6372296;27;20046;-55
2023/05/04 15:01:43;;;;;;;0.30;0.20;;;24.30;52.70;;;;;;6373333;28;20046;-54
2023/05/04 15:04:45;;;;;;;0.38;0.20;;;24.50;52.80;;;;;;6372776;27;20581;-54
2023/05/04 15:07:47;;;;;;;0.28;0.20;;;24.30;52.20;;;;;;6373473;27;20039;-54
2023/05/04 15:10:49;;;;;;;0.40;0.10;;;24.60;52.40;;;;;;6354297;27;20043;-55
2023/05/04 15:13:51;;;;;;;0.30;0.20;;;24.50;52.20;;;;;;6373028;27;20035;-56
2023/05/04 15:16:52;;;;;;;0.10;0.10;;;24.30;52.00;;;;;;6372740;27;20047;-55
2023/05/04 15:19:54;;;;;;;0.40;0.20;;;24.50;51.80;;;;;;6373807;27;20087;-55
2023/05/04 15:22:56;;;;;;;0.40;0.30;;;24.50;51.70;;;;;;6372605;27;20105;-55
2023/05/04 15:25:59;;;;;;;0.38;0.17;;;24.40;51.30;;;;;;6372518;27;20035;-55
2023/05/04 15:29:03;;;;;;;0.20;0.20;;;24.70;51.50;;;;;;6372895;28;20096;-53
2023/05/04 15:32:05;;;;;;;0.50;0.30;;;24.60;50.00;;;;;;6372597;27;20043;-54
2023/05/04 15:35:07;;;;;;;0.30;0.20;;;24.20;51.00;;;;;;6372372;27;20415;-55
2023/05/04 15:38:09;;;;;;;0.20;0.20;;;24.20;50.70;;;;;;6373490;28;20043;-55
2023/05/04 15:41:12;;;;;;;0.20;0.10;;;24.30;50.80;;;;;;6372370;28;20046;-53
2023/05/04 15:44:14;;;;;;;0.68;0.20;;;24.30;50.80;;;;;;6372216;27;20103;-55
2023/05/04 15:47:16;;;;;;;0.35;0.20;;;24.60;51.00;;;;;;6372655;27;20040;-56
2023/05/04 15:50:17;;;;;;;0.30;0.20;;;24.20;50.70;;;;;;6354529;28;20412;-55
2023/05/04 15:53:19;;;;;;;0.10;0.10;;;24.50;51.10;;;;;;6372232;28;20049;-56
2023/05/04 15:56:21;;;;;;;0.10;0.10;;;24.40;50.80;;;;;;6372495;28;20047;-55
2023/05/04 15:59:27;;;;;;;0.20;0.20;;;24.50;51.20;;;;;;6372226;27;20407;-53